createdAt,value
2024-05-09T00:01:18.777Z,3.33
2024-05-09T00:03:51.348Z,3.33
2024-05-09T00:06:21.095Z,3.40
2024-05-09T00:08:50.913Z,3.57
2024-05-09T00:11:20.873Z,3.80
2024-05-09T00:13:50.801Z,3.53
2024-05-09T00:16:20.530Z,3.90
2024-05-09T00:18:52.940Z,3.60
2024-05-09T00:21:22.639Z,3.80
2024-05-09T00:23:52.399Z,4.63
2024-05-09T00:26:22.186Z,3.40
2024-05-09T00:28:51.933Z,3.83
2024-05-09T00:31:21.644Z,3.80
2024-05-09T00:33:54.097Z,3.83
2024-05-09T00:36:23.929Z,4.63
2024-05-09T00:38:53.613Z,4.13
2024-05-09T00:41:23.354Z,3.80
2024-05-09T00:43:53.125Z,3.77
2024-05-09T00:46:23.485Z,3.90
2024-05-09T00:48:55.831Z,3.90
2024-05-09T00:51:25.712Z,3.70
2024-05-09T00:53:55.650Z,3.97
2024-05-09T00:56:25.627Z,3.87
2024-05-09T00:58:55.819Z,4.27
2024-05-09T01:01:26.569Z,4.30
2024-05-09T01:03:59.306Z,3.50
2024-05-09T01:06:29.225Z,3.73
2024-05-09T01:08:59.000Z,3.87
2024-05-09T01:11:36.077Z,4.00
2024-05-09T01:14:05.829Z,4.17
2024-05-09T01:16:35.831Z,3.93
2024-05-09T01:19:16.441Z,4.20
2024-05-09T01:21:46.519Z,3.93
2024-05-09T01:24:18.816Z,4.13
2024-05-09T01:26:48.524Z,4.20
2024-05-09T01:29:18.313Z,3.97
2024-05-09T01:31:48.694Z,4.00
2024-05-09T01:34:18.450Z,4.50
2024-05-09T01:36:48.098Z,4.00
2024-05-09T01:39:20.416Z,3.97
2024-05-09T01:41:50.187Z,3.90
2024-05-09T01:44:19.985Z,3.50
2024-05-09T01:46:49.797Z,3.97
2024-05-09T01:49:19.760Z,3.70
2024-05-09T01:51:50.457Z,4.00
2024-05-09T01:54:23.147Z,4.30
2024-05-09T01:56:52.805Z,3.90
2024-05-09T01:59:22.889Z,3.70
2024-05-09T02:01:56.886Z,4.07
2024-05-09T02:04:27.809Z,4.07
2024-05-09T02:06:57.665Z,4.20
2024-05-09T02:09:30.000Z,3.93
2024-05-09T02:11:59.818Z,4.00
2024-05-09T02:14:29.706Z,3.80
2024-05-09T02:16:59.474Z,4.20
2024-05-09T02:19:29.462Z,4.20
2024-05-09T02:21:59.187Z,3.93
2024-05-09T02:24:31.481Z,3.77
2024-05-09T02:27:01.303Z,4.30
2024-05-09T02:29:31.298Z,4.10
2024-05-09T02:32:01.411Z,4.57
2024-05-09T02:34:28.722Z,4.10
2024-05-09T02:36:58.427Z,4.00
2024-05-09T02:39:25.525Z,4.17
2024-05-09T02:41:57.842Z,4.70
2024-05-09T02:44:25.039Z,4.70
2024-05-09T02:46:54.839Z,4.50
2024-05-09T02:49:22.061Z,4.47
2024-05-09T02:51:51.822Z,4.70
2024-05-09T02:54:18.977Z,4.47
2024-05-09T02:56:48.850Z,4.30
2024-05-09T02:59:18.739Z,4.40
2024-05-09T03:01:48.682Z,4.57
2024-05-09T03:04:15.946Z,4.03
2024-05-09T03:06:45.889Z,4.33
2024-05-09T03:09:12.907Z,4.43
2024-05-09T03:11:42.669Z,4.10
2024-05-09T03:14:09.907Z,4.40
2024-05-09T03:16:43.010Z,4.30
2024-05-09T03:19:10.649Z,4.30
2024-05-09T03:21:41.765Z,4.63
2024-05-09T03:24:08.844Z,4.37
2024-05-09T03:26:38.513Z,4.20
2024-05-09T03:29:05.744Z,4.63
2024-05-09T03:31:37.854Z,4.23
2024-05-09T03:34:11.278Z,4.10
2024-05-09T03:36:41.574Z,4.17
2024-05-09T03:39:12.206Z,4.43
2024-05-09T03:41:42.035Z,4.27
2024-05-09T03:44:11.835Z,4.33
2024-05-09T03:46:41.942Z,4.50
2024-05-09T03:49:11.700Z,4.17
2024-05-09T03:51:41.517Z,4.20
2024-05-09T03:54:08.550Z,4.37
2024-05-09T03:56:38.388Z,4.40
2024-05-09T03:59:05.595Z,4.07
2024-05-09T04:01:35.507Z,4.47
2024-05-09T04:04:02.691Z,4.27
2024-05-09T04:06:35.036Z,4.10
2024-05-09T04:09:02.221Z,4.20
2024-05-09T04:11:32.120Z,5.03
2024-05-09T04:13:59.170Z,4.63
2024-05-09T04:16:28.916Z,4.20
2024-05-09T04:18:56.227Z,4.53
2024-05-09T04:21:26.003Z,4.23
2024-05-09T04:23:55.688Z,4.47
2024-05-09T04:26:25.407Z,4.43
2024-05-09T04:28:52.609Z,4.60
2024-05-09T04:31:23.696Z,4.53
2024-05-09T04:33:50.976Z,4.73
2024-05-09T04:36:20.766Z,4.30
2024-05-09T04:38:47.895Z,4.40
2024-05-09T04:41:20.319Z,4.30
2024-05-09T04:43:47.450Z,4.60
2024-05-09T04:46:17.645Z,4.50
2024-05-09T04:48:45.117Z,4.43
2024-05-09T04:51:15.175Z,4.13
2024-05-09T04:53:42.474Z,4.60
2024-05-09T04:56:12.397Z,4.93
2024-05-09T04:58:42.087Z,4.73
2024-05-09T05:01:12.467Z,4.63
2024-05-09T05:03:39.708Z,4.80
2024-05-09T05:06:09.642Z,4.60
2024-05-09T05:08:37.849Z,4.87
2024-05-09T05:11:07.867Z,4.40
2024-05-09T05:13:37.893Z,4.77
2024-05-09T05:16:11.718Z,4.43
2024-05-09T05:18:38.966Z,4.60
2024-05-09T05:21:08.878Z,4.50
2024-05-09T05:23:36.352Z,4.20
2024-05-09T05:26:07.820Z,4.43
2024-05-09T05:28:34.936Z,4.90
2024-05-09T05:31:04.587Z,4.07
2024-05-09T05:33:37.032Z,4.50
2024-05-09T05:36:07.362Z,4.67
2024-05-09T05:38:37.222Z,4.50
2024-05-09T05:41:04.640Z,4.00
2024-05-09T05:43:34.352Z,4.57
2024-05-09T05:46:01.451Z,4.50
2024-05-09T05:48:31.639Z,4.80
2024-05-09T05:51:04.289Z,4.40
2024-05-09T05:53:34.801Z,4.47
2024-05-09T05:56:02.179Z,4.30
2024-05-09T05:58:31.913Z,4.27
2024-05-09T06:00:59.522Z,4.40
2024-05-09T06:03:29.445Z,4.77
2024-05-09T06:05:59.284Z,4.43
2024-05-09T06:08:31.859Z,11.27
2024-05-09T06:10:59.178Z,4.23
2024-05-09T06:13:28.847Z,4.33
2024-05-09T06:15:56.066Z,4.10
2024-05-09T06:18:26.015Z,4.60
2024-05-09T06:20:53.465Z,4.40
2024-05-09T06:23:23.254Z,4.57
2024-05-09T06:25:53.074Z,4.57
2024-05-09T06:28:22.854Z,4.67
2024-05-09T06:30:49.948Z,3.90
2024-05-09T06:33:19.791Z,4.47
2024-05-09T06:35:47.060Z,4.20
2024-05-09T06:38:16.864Z,4.33
2024-05-09T06:40:44.711Z,4.20
2024-05-09T06:43:19.406Z,3.90
2024-05-09T06:45:48.193Z,4.13
2024-05-09T06:48:21.250Z,4.00
2024-05-09T06:50:49.182Z,4.13
2024-05-09T06:53:19.760Z,4.37
2024-05-09T06:55:46.902Z,4.40
2024-05-09T06:58:19.360Z,4.10
2024-05-09T07:00:46.472Z,4.30
2024-05-09T07:03:18.619Z,3.80
2024-05-09T07:05:48.171Z,4.00
2024-05-09T07:08:19.496Z,3.90
2024-05-09T07:10:47.000Z,4.07
2024-05-09T07:13:19.515Z,4.07
2024-05-09T07:15:46.619Z,3.97
2024-05-09T07:18:20.071Z,4.80
2024-05-09T07:20:48.754Z,3.73
2024-05-09T07:23:19.457Z,3.80
2024-05-09T07:25:46.877Z,3.70
2024-05-09T07:28:20.027Z,3.27
2024-05-09T07:30:47.426Z,3.27
2024-05-09T07:33:24.037Z,3.40
2024-05-09T07:35:52.116Z,4.07
2024-05-09T07:38:22.120Z,3.77
2024-05-09T07:40:49.581Z,3.60
2024-05-09T07:43:21.985Z,3.30
2024-05-09T07:45:53.539Z,3.00
2024-05-09T07:52:39.202Z,3.40
2024-05-09T07:53:49.326Z,2.93
2024-05-09T07:56:21.863Z,3.00
2024-05-09T07:58:56.308Z,3.20
2024-05-09T08:01:26.456Z,4.00
2024-05-09T08:03:57.075Z,3.30
2024-05-09T08:06:24.674Z,3.33
2024-05-09T08:08:54.405Z,3.50
2024-05-09T08:11:21.636Z,3.40
2024-05-09T08:13:51.342Z,3.63
2024-05-09T08:16:21.297Z,3.27
2024-05-09T08:18:51.637Z,2.90
2024-05-09T08:21:19.467Z,3.77
2024-05-09T08:23:49.171Z,2.80
2024-05-09T08:26:16.279Z,3.03
2024-05-09T08:28:46.001Z,3.30
2024-05-09T08:31:13.201Z,3.60
2024-05-09T08:33:51.103Z,3.50
2024-05-09T08:36:18.319Z,2.93
2024-05-09T08:38:48.052Z,3.27
2024-05-09T08:41:15.421Z,3.10
2024-05-09T08:43:46.426Z,2.90
2024-05-09T08:46:14.372Z,3.00
2024-05-09T08:48:45.715Z,2.77
2024-05-09T08:51:15.978Z,3.37
2024-05-09T08:53:45.669Z,3.20
2024-05-09T08:56:13.292Z,3.00
2024-05-09T08:58:43.831Z,3.00
2024-05-09T09:01:11.230Z,2.67
2024-05-09T09:03:41.289Z,2.93
2024-05-09T09:06:11.195Z,3.03
2024-05-09T09:08:43.816Z,2.90
2024-05-09T09:11:11.139Z,2.70
2024-05-09T09:13:41.280Z,2.80
2024-05-09T09:16:08.531Z,3.23
2024-05-09T09:18:38.445Z,3.20
2024-05-09T09:21:10.289Z,2.90
2024-05-09T09:23:44.307Z,2.90
2024-05-09T09:26:16.102Z,2.70
2024-05-09T09:28:46.356Z,2.63
2024-05-09T09:31:17.878Z,2.90
2024-05-09T09:33:47.987Z,2.60
2024-05-09T09:36:15.279Z,3.03
2024-05-09T09:38:49.399Z,2.70
2024-05-09T09:41:17.707Z,3.20
2024-05-09T09:43:47.430Z,2.90
2024-05-09T09:46:14.916Z,3.00
2024-05-09T09:48:45.623Z,2.60
2024-05-09T09:51:14.049Z,2.70
2024-05-09T09:53:47.593Z,2.70
2024-05-09T09:56:17.295Z,2.63
2024-05-09T09:58:47.007Z,2.67
2024-05-09T10:01:14.222Z,2.67
2024-05-09T10:03:45.480Z,2.70
2024-05-09T10:06:13.207Z,2.70
2024-05-09T10:08:43.029Z,2.43
2024-05-09T10:11:12.924Z,2.70
2024-05-09T10:13:44.211Z,2.67
2024-05-09T10:16:12.383Z,2.50
2024-05-09T10:18:43.242Z,2.50
2024-05-09T10:21:16.899Z,2.53
2024-05-09T10:23:47.099Z,2.37
2024-05-09T10:26:16.748Z,3.70
2024-05-09T10:28:47.020Z,2.53
2024-05-09T10:31:16.095Z,2.70
2024-05-09T10:33:51.536Z,3.00
2024-05-09T10:36:20.927Z,2.83
2024-05-09T10:38:51.664Z,2.40
2024-05-09T10:41:22.171Z,2.83
2024-05-09T10:43:52.643Z,2.77
2024-05-09T10:46:20.232Z,2.50
2024-05-09T10:48:52.473Z,2.30
2024-05-09T10:51:19.896Z,2.30
2024-05-09T10:53:52.588Z,3.10
2024-05-09T10:56:22.376Z,3.17
2024-05-09T10:58:54.725Z,2.50
2024-05-09T11:01:21.981Z,2.73
2024-05-09T11:03:52.638Z,2.90
2024-05-09T11:06:19.851Z,2.50
2024-05-09T11:08:49.849Z,2.67
2024-05-09T11:11:17.111Z,2.53
2024-05-09T11:13:49.496Z,2.37
2024-05-09T11:16:19.288Z,2.57
2024-05-09T11:18:56.576Z,2.80
2024-05-09T11:21:24.291Z,2.50
2024-05-09T11:23:54.457Z,2.60
2024-05-09T11:26:22.336Z,2.73
2024-05-09T11:28:54.709Z,2.60
2024-05-09T11:31:22.000Z,2.57
2024-05-09T11:33:52.003Z,2.80
2024-05-09T11:36:19.328Z,2.70
2024-05-09T11:38:49.110Z,2.70
2024-05-09T11:41:21.932Z,2.43
2024-05-09T11:43:51.663Z,2.50
2024-05-09T11:46:21.613Z,2.33
2024-05-09T11:48:49.055Z,2.53
2024-05-09T11:51:18.779Z,2.20
2024-05-09T11:53:45.886Z,2.50
2024-05-09T11:56:17.331Z,3.13
2024-05-09T11:58:44.478Z,2.90
2024-05-09T12:01:19.903Z,2.37
2024-05-09T12:03:49.351Z,2.30
2024-05-09T12:06:19.153Z,2.70
2024-05-09T12:08:46.339Z,2.67
2024-05-09T12:11:16.458Z,2.70
2024-05-09T12:13:44.046Z,2.70
2024-05-09T12:16:16.894Z,2.50
2024-05-09T12:18:44.168Z,2.47
2024-05-09T12:21:16.974Z,2.40
2024-05-09T12:23:44.028Z,2.90
2024-05-09T12:26:15.882Z,2.80
2024-05-09T12:28:43.094Z,2.67
2024-05-09T12:31:12.880Z,2.93
2024-05-09T12:33:42.726Z,2.70
2024-05-09T12:36:12.513Z,2.70
2024-05-09T12:38:41.016Z,3.13
2024-05-09T12:41:10.853Z,2.40
2024-05-09T12:43:38.024Z,2.63
2024-05-09T12:46:07.938Z,3.00
2024-05-09T12:48:35.299Z,2.50
2024-05-09T12:51:08.213Z,2.90
2024-05-09T12:53:36.423Z,2.87
2024-05-09T12:56:08.811Z,2.60
2024-05-09T12:58:36.613Z,2.57
2024-05-09T13:01:06.827Z,2.40
2024-05-09T13:03:34.112Z,2.10
2024-05-09T13:06:03.982Z,2.60
2024-05-09T13:08:33.705Z,2.37
2024-05-09T13:11:03.515Z,2.70
2024-05-09T13:13:32.966Z,3.13
2024-05-09T13:16:02.843Z,2.80
2024-05-09T13:18:30.266Z,2.50
2024-05-09T13:21:00.124Z,2.27
2024-05-09T13:23:27.223Z,2.50
2024-05-09T13:25:59.603Z,2.67
2024-05-09T13:28:26.963Z,2.13
2024-05-09T13:30:56.731Z,2.90
2024-05-09T13:33:23.942Z,2.70
2024-05-09T13:35:53.744Z,2.40
2024-05-09T13:38:21.369Z,2.30
2024-05-09T13:40:51.529Z,2.20
2024-05-09T13:43:23.176Z,2.63
2024-05-09T13:45:55.132Z,2.60
2024-05-09T13:48:22.315Z,2.33
2024-05-09T13:50:52.266Z,2.20
2024-05-09T13:53:19.459Z,2.30
2024-05-09T13:55:49.240Z,3.00
2024-05-09T13:58:16.693Z,2.50
2024-05-09T14:00:49.661Z,2.83
2024-05-09T14:03:19.275Z,2.43
2024-05-09T14:05:51.539Z,2.30
2024-05-09T14:08:19.809Z,2.40
2024-05-09T14:10:50.304Z,2.20
2024-05-09T14:13:17.833Z,2.40
2024-05-09T14:15:50.806Z,2.67
2024-05-09T14:18:19.199Z,2.50
2024-05-09T14:20:48.971Z,3.27
2024-05-09T14:23:17.797Z,2.80
2024-05-09T14:25:51.296Z,2.70
2024-05-09T14:28:19.822Z,2.17
2024-05-09T14:30:52.332Z,2.20
2024-05-09T14:33:25.410Z,2.53
2024-05-09T14:35:55.564Z,2.47
2024-05-09T14:38:25.290Z,2.47
2024-05-09T14:40:55.347Z,2.40
2024-05-09T14:43:22.704Z,2.90
2024-05-09T14:45:55.853Z,2.60
2024-05-09T14:48:23.209Z,2.57
2024-05-09T14:50:52.934Z,2.50
2024-05-09T14:53:19.971Z,2.47
2024-05-09T14:55:50.072Z,2.80
2024-05-09T14:58:17.515Z,2.90
2024-05-09T15:00:51.197Z,2.80
2024-05-09T15:03:22.556Z,3.03
2024-05-09T15:05:53.234Z,2.93
2024-05-09T15:08:20.520Z,2.20
2024-05-09T15:10:51.016Z,2.37
2024-05-09T15:13:18.665Z,2.70
2024-05-09T15:15:48.767Z,3.07
2024-05-09T15:18:16.488Z,2.67
2024-05-09T15:20:49.302Z,2.30
2024-05-09T15:23:16.642Z,2.10
2024-05-09T15:25:47.259Z,2.60
2024-05-09T15:28:14.712Z,2.63
2024-05-09T15:30:46.566Z,2.40
2024-05-09T15:33:14.597Z,2.53
2024-05-09T15:35:46.609Z,2.60
2024-05-09T15:38:18.256Z,2.57
2024-05-09T15:40:48.487Z,2.73
2024-05-09T15:43:15.745Z,2.40
2024-05-09T15:45:45.508Z,2.60
2024-05-09T15:48:12.751Z,2.70
2024-05-09T15:50:43.051Z,2.77
2024-05-09T15:53:12.054Z,2.40
2024-05-09T15:55:45.284Z,2.67
2024-05-09T15:58:12.816Z,2.40
2024-05-09T16:00:47.139Z,2.90
2024-05-09T16:03:16.048Z,2.40
2024-05-09T16:05:47.176Z,2.40
2024-05-09T16:08:15.161Z,2.67
2024-05-09T16:10:49.210Z,3.20
2024-05-09T16:13:17.340Z,2.70
2024-05-09T16:15:47.875Z,2.57
2024-05-09T16:18:15.144Z,2.10
2024-05-09T16:20:47.458Z,2.43
2024-05-09T16:23:16.946Z,2.60
2024-05-09T16:25:51.385Z,2.20
2024-05-09T16:28:19.163Z,2.50
2024-05-09T16:30:49.049Z,2.60
2024-05-09T16:33:19.357Z,2.73
2024-05-09T16:35:49.590Z,3.10
2024-05-09T16:38:16.833Z,2.40
2024-05-09T16:40:52.305Z,2.50
2024-05-09T16:43:22.325Z,2.70
2024-05-09T16:45:50.539Z,2.70
2024-05-09T16:48:20.515Z,2.60
2024-05-09T16:50:50.016Z,2.70
2024-05-09T16:53:19.680Z,2.70
2024-05-09T16:55:49.774Z,2.90
2024-05-09T16:58:19.948Z,2.77
2024-05-09T17:00:47.246Z,2.73
2024-05-09T17:03:17.280Z,2.90
2024-05-09T17:05:46.414Z,2.63
2024-05-09T17:08:18.264Z,2.70
2024-05-09T17:10:45.860Z,2.67
2024-05-09T17:13:18.747Z,2.80
2024-05-09T17:15:48.934Z,3.20
2024-05-09T17:18:19.205Z,3.10
2024-05-09T17:20:49.172Z,4.00
2024-05-09T17:23:16.543Z,2.80
2024-05-09T17:25:46.892Z,2.83
2024-05-09T17:28:16.822Z,3.03
2024-05-09T17:30:46.629Z,2.33
2024-05-09T17:33:14.011Z,2.73
2024-05-09T17:35:45.790Z,3.03
2024-05-09T17:38:13.154Z,3.03
2024-05-09T17:40:42.898Z,2.90
2024-05-09T17:43:10.964Z,2.77
2024-05-09T17:45:43.827Z,2.50
2024-05-09T17:48:11.910Z,2.70
2024-05-09T17:50:42.517Z,2.43
2024-05-09T17:53:10.377Z,2.40
2024-05-09T17:55:41.187Z,2.60
2024-05-09T17:58:08.880Z,3.17
2024-05-09T18:00:41.659Z,3.10
2024-05-09T18:03:13.500Z,2.60
2024-05-09T18:05:44.995Z,2.50
2024-05-09T18:08:12.900Z,2.57
2024-05-09T18:10:43.297Z,2.60
2024-05-09T18:13:11.374Z,2.80
2024-05-09T18:15:41.671Z,2.60
2024-05-09T18:18:11.921Z,2.40
2024-05-09T18:20:45.170Z,2.57
2024-05-09T18:23:15.745Z,2.50
2024-05-09T18:25:47.190Z,2.80
2024-05-09T18:28:15.141Z,3.30
2024-05-09T18:30:45.196Z,2.90
2024-05-09T18:33:15.356Z,2.70
2024-05-09T18:35:48.780Z,3.10
2024-05-09T18:38:15.933Z,2.73
2024-05-09T18:40:48.510Z,3.23
2024-05-09T18:43:16.754Z,3.83
2024-05-09T18:45:47.359Z,3.30
2024-05-09T18:48:17.433Z,3.87
2024-05-09T18:50:47.358Z,3.93
2024-05-09T18:53:14.607Z,3.87
2024-05-09T18:55:44.755Z,3.57
2024-05-09T18:58:12.080Z,3.30
2024-05-09T19:00:45.207Z,3.90
2024-05-09T19:03:17.005Z,3.67
2024-05-09T19:05:47.352Z,3.93
2024-05-09T19:08:15.450Z,3.40
2024-05-09T19:10:46.245Z,3.43
2024-05-09T19:13:14.523Z,3.60
2024-05-09T19:15:45.069Z,6.53
2024-05-09T19:18:13.243Z,4.03
2024-05-09T19:20:46.685Z,4.07
2024-05-09T19:23:13.694Z,3.53
2024-05-09T19:25:43.597Z,4.13
2024-05-09T19:28:10.782Z,4.17
2024-05-09T19:30:42.578Z,4.23
2024-05-09T19:33:12.444Z,4.60
2024-05-09T19:35:46.060Z,4.40
2024-05-09T19:38:13.215Z,4.77
2024-05-09T19:40:43.069Z,4.67
2024-05-09T19:43:13.382Z,5.23
2024-05-09T19:45:40.582Z,4.93
2024-05-09T19:48:11.025Z,4.30
2024-05-09T19:50:43.094Z,5.30
2024-05-09T19:53:17.507Z,5.10
2024-05-09T19:55:44.579Z,6.10
2024-05-09T19:58:14.440Z,5.00
2024-05-09T20:00:43.522Z,4.93
2024-05-09T20:03:15.753Z,4.53
2024-05-09T20:05:45.539Z,4.30
2024-05-09T20:08:18.934Z,4.50
2024-05-09T20:10:46.110Z,4.10
2024-05-09T20:13:16.005Z,3.60
2024-05-09T20:15:43.142Z,3.93
2024-05-09T20:18:13.102Z,4.43
2024-05-09T20:20:42.925Z,4.90
2024-05-09T20:23:14.936Z,4.77
2024-05-09T20:25:49.597Z,5.27
2024-05-09T20:28:16.796Z,5.40
2024-05-09T20:30:46.574Z,4.87
2024-05-09T20:33:14.303Z,4.30
2024-05-09T20:35:44.064Z,4.77
2024-05-09T20:38:11.161Z,6.50
2024-05-09T20:40:40.959Z,5.40
2024-05-09T20:43:11.092Z,5.20
2024-05-09T20:45:41.194Z,7.03
2024-05-09T20:48:09.473Z,4.67
2024-05-09T20:50:41.796Z,5.90
2024-05-09T20:53:10.887Z,5.90
2024-05-09T20:55:40.965Z,5.00
2024-05-09T20:58:10.895Z,5.10
2024-05-09T21:00:43.950Z,5.03
2024-05-09T21:03:14.975Z,5.43
2024-05-09T21:05:46.786Z,6.20
2024-05-09T21:08:14.533Z,5.57
2024-05-09T21:10:44.378Z,5.87
2024-05-09T21:13:14.347Z,5.53
2024-05-09T21:15:44.187Z,5.57
2024-05-09T21:18:11.619Z,5.40
2024-05-09T21:20:41.294Z,4.70
2024-05-09T21:23:08.447Z,5.93
2024-05-09T21:25:38.171Z,6.10
2024-05-09T21:28:05.922Z,6.20
2024-05-09T21:30:42.434Z,6.13
2024-05-09T21:33:12.765Z,5.70
2024-05-09T21:35:44.517Z,5.50
2024-05-09T21:38:13.802Z,5.50
2024-05-09T21:40:44.225Z,6.00
2024-05-09T21:43:11.711Z,5.67
2024-05-09T21:45:44.311Z,5.53
2024-05-09T21:48:12.680Z,8.23
2024-05-09T21:50:42.758Z,6.40
2024-05-09T21:53:10.299Z,5.23
2024-05-09T21:55:40.159Z,4.80
2024-05-09T21:58:07.386Z,4.90
2024-05-09T22:00:39.387Z,4.90
2024-05-09T22:03:11.031Z,5.47
2024-05-09T22:05:44.139Z,5.13
2024-05-09T22:08:11.580Z,5.10
2024-05-09T22:10:41.267Z,5.30
2024-05-09T22:13:08.914Z,5.23
2024-05-09T22:15:40.706Z,5.30
2024-05-09T22:18:11.647Z,5.17
2024-05-09T22:20:45.363Z,5.47
2024-05-09T22:23:14.312Z,5.57
2024-05-09T22:25:44.276Z,5.27
2024-05-09T22:28:14.021Z,5.43
2024-05-09T22:30:43.952Z,6.53
2024-05-09T22:33:13.974Z,7.13
2024-05-09T22:35:45.175Z,5.50
2024-05-09T22:38:12.230Z,6.00
2024-05-09T22:40:47.652Z,6.77
2024-05-09T22:43:18.532Z,6.47
2024-05-09T22:45:49.204Z,6.40
2024-05-09T22:48:19.437Z,5.30
2024-05-09T22:50:49.215Z,5.70
2024-05-09T22:53:16.664Z,5.23
2024-05-09T22:55:46.396Z,5.60
2024-05-09T22:58:13.638Z,5.73
2024-05-09T23:00:43.513Z,5.73
2024-05-09T23:03:10.716Z,5.90
2024-05-09T23:05:43.135Z,5.30
2024-05-09T23:08:10.630Z,5.67
2024-05-09T23:10:40.299Z,5.57
2024-05-09T23:13:08.233Z,5.77
2024-05-09T23:15:39.091Z,6.20
2024-05-09T23:18:06.739Z,6.20
2024-05-09T23:20:39.343Z,6.73
2024-05-09T23:23:11.411Z,6.27
2024-05-09T23:25:42.190Z,6.60
2024-05-09T23:28:09.799Z,6.37
2024-05-09T23:30:41.139Z,5.83
2024-05-09T23:33:11.511Z,6.40
2024-05-09T23:35:41.416Z,6.33
2024-05-09T23:38:11.133Z,6.57
2024-05-09T23:40:42.137Z,7.33
2024-05-09T23:43:10.692Z,7.53
2024-05-09T23:45:41.319Z,7.03
2024-05-09T23:48:09.392Z,6.87
2024-05-09T23:50:40.471Z,7.03
2024-05-09T23:53:11.227Z,6.33
2024-05-09T23:55:41.140Z,8.27
2024-05-09T23:58:08.629Z,8.23
